Barrett, Minnesota
Current Conditions -  °F | °C
As of 5:18 AM on Friday 28 Nov 2014 (Local Time) from KY63 Reporting Station
Haze Haze  
Wind Chill: -6°   Ceiling: 6500
Heat Index: 10°   Visibility: 5mi
Dew Point:   Wind: 14mph
Humidity: 76%   Direction: 140°SE
Pressure: 29.96"   Gusts: NA
Location:  45.91°N, 95.89°W
Report Text: KY63 281118Z AUTO 14012KT 5SM HZ OVC065 M12/M16 A2996 RMK AO2 T11221157
Loading
Personal Weather Stations






























Interactive Weather Map New forecast layout! Learn more

10-Day Weather Forecast

Advertisements
Track Severe Weather on mobile